sensor_id;sensor_type;location;lat;lon;timestamp;temperature;humidity
40822;DHT22;26542;50.836;5.356;2023-03-01T00:01:13;0.30;99.90
40822;DHT22;26542;50.836;5.356;2023-03-01T00:03:39;0.30;99.90
40822;DHT22;26542;50.836;5.356;2023-03-01T00:06:05;0.60;99.90
40822;DHT22;26542;50.836;5.356;2023-03-01T00:08:34;0.20;99.90
40822;DHT22;26542;50.836;5.356;2023-03-01T00:11:18;0.20;99.90
40822;DHT22;26542;50.836;5.356;2023-03-01T00:13:47;0.10;99.90
40822;DHT22;26542;50.836;5.356;2023-03-01T00:16:16;0.20;99.90
40822;DHT22;26542;50.836;5.356;2023-03-01T00:18:44;0.10;99.90
40822;DHT22;26542;50.836;5.356;2023-03-01T00:21:10;0.10;99.90
40822;DHT22;26542;50.836;5.356;2023-03-01T00:23:38;0.10;99.90
40822;DHT22;26542;50.836;5.356;2023-03-01T00:26:10;0.00;99.90
40822;DHT22;26542;50.836;5.356;2023-03-01T00:28:37;0.10;99.90
40822;DHT22;26542;50.836;5.356;2023-03-01T00:31:11;0.00;99.90
40822;DHT22;26542;50.836;5.356;2023-03-01T00:33:38;-0.10;99.90
40822;DHT22;26542;50.836;5.356;2023-03-01T00:36:07;-0.10;99.90
40822;DHT22;26542;50.836;5.356;2023-03-01T00:38:38;-0.20;99.90
40822;DHT22;26542;50.836;5.356;2023-03-01T00:41:07;-0.20;99.90
40822;DHT22;26542;50.836;5.356;2023-03-01T00:43:38;-0.20;99.90
40822;DHT22;26542;50.836;5.356;2023-03-01T00:46:18;-0.10;99.90
40822;DHT22;26542;50.836;5.356;2023-03-01T00:48:45;-0.10;99.90
40822;DHT22;26542;50.836;5.356;2023-03-01T00:51:14;-0.20;99.90
40822;DHT22;26542;50.836;5.356;2023-03-01T00:53:41;-0.20;99.90
40822;DHT22;26542;50.836;5.356;2023-03-01T00:56:08;-0.20;99.90
40822;DHT22;26542;50.836;5.356;2023-03-01T00:58:34;-0.30;99.90
40822;DHT22;26542;50.836;5.356;2023-03-01T01:01:01;-0.30;99.90
40822;DHT22;26542;50.836;5.356;2023-03-01T01:03:32;-0.30;99.90
40822;DHT22;26542;50.836;5.356;2023-03-01T01:05:57;-0.30;99.90
40822;DHT22;26542;50.836;5.356;2023-03-01T01:08:23;-0.40;99.90
40822;DHT22;26542;50.836;5.356;2023-03-01T01:10:49;-0.10;99.90
40822;DHT22;26542;50.836;5.356;2023-03-01T01:13:17;-0.40;99.90
40822;DHT22;26542;50.836;5.356;2023-03-01T01:15:44;-0.10;99.90
40822;DHT22;26542;50.836;5.356;2023-03-01T01:18:09;-0.40;99.90
40822;DHT22;26542;50.836;5.356;2023-03-01T01:20:37;-0.40;99.90
40822;DHT22;26542;50.836;5.356;2023-03-01T01:23:05;-0.50;99.90
40822;DHT22;26542;50.836;5.356;2023-03-01T01:25:35;-0.20;99.90
40822;DHT22;26542;50.836;5.356;2023-03-01T01:28:03;-0.50;99.90
40822;DHT22;26542;50.836;5.356;2023-03-01T01:30:33;-0.30;99.90
40822;DHT22;26542;50.836;5.356;2023-03-01T01:32:59;0.00;99.90
40822;DHT22;26542;50.836;5.356;2023-03-01T01:35:27;-0.10;99.90
40822;DHT22;26542;50.836;5.356;2023-03-01T01:37:53;-0.40;99.90
40822;DHT22;26542;50.836;5.356;2023-03-01T01:40:21;-0.30;99.90
40822;DHT22;26542;50.836;5.356;2023-03-01T01:42:53;-0.80;99.90
40822;DHT22;26542;50.836;5.356;2023-03-01T01:45:28;-0.80;99.90
40822;DHT22;26542;50.836;5.356;2023-03-01T01:48:03;-0.90;99.90
40822;DHT22;26542;50.836;5.356;2023-03-01T01:50:33;-0.90;99.90
40822;DHT22;26542;50.836;5.356;2023-03-01T01:53:10;-0.90;99.90
40822;DHT22;26542;50.836;5.356;2023-03-01T01:55:39;-0.50;99.90
40822;DHT22;26542;50.836;5.356;2023-03-01T01:58:09;-0.60;99.90
40822;DHT22;26542;50.836;5.356;2023-03-01T02:00:37;-0.40;99.90
40822;DHT22;26542;50.836;5.356;2023-03-01T02:03:11;-0.60;99.90
40822;DHT22;26542;50.836;5.356;2023-03-01T02:06:01;-1.00;99.90
40822;DHT22;26542;50.836;5.356;2023-03-01T02:08:28;-1.00;99.90
40822;DHT22;26542;50.836;5.356;2023-03-01T02:10:57;-1.00;99.90
40822;DHT22;26542;50.836;5.356;2023-03-01T02:13:25;-1.10;99.90
40822;DHT22;26542;50.836;5.356;2023-03-01T02:15:51;-1.10;99.90
40822;DHT22;26542;50.836;5.356;2023-03-01T02:18:20;-0.90;99.90
40822;DHT22;26542;50.836;5.356;2023-03-01T02:23:47;-1.20;99.90
40822;DHT22;26542;50.836;5.356;2023-03-01T02:28:59;-1.10;99.90
40822;DHT22;26542;50.836;5.356;2023-03-01T02:31:27;-1.10;99.90
40822;DHT22;26542;50.836;5.356;2023-03-01T02:34:11;-1.20;99.90
40822;DHT22;26542;50.836;5.356;2023-03-01T02:36:46;-1.20;99.90
40822;DHT22;26542;50.836;5.356;2023-03-01T02:39:17;-1.30;99.90
40822;DHT22;26542;50.836;5.356;2023-03-01T02:41:48;-1.30;99.90
40822;DHT22;26542;50.836;5.356;2023-03-01T02:44:17;-1.40;99.90
40822;DHT22;26542;50.836;5.356;2023-03-01T02:46:49;-1.50;99.90
40822;DHT22;26542;50.836;5.356;2023-03-01T02:49:35;-1.50;99.90
40822;DHT22;26542;50.836;5.356;2023-03-01T02:52:28;-1.10;99.90
40822;DHT22;26542;50.836;5.356;2023-03-01T02:55:05;-1.50;99.90
40822;DHT22;26542;50.836;5.356;2023-03-01T02:57:37;-1.40;99.90
40822;DHT22;26542;50.836;5.356;2023-03-01T03:00:08;-1.10;99.90
40822;DHT22;26542;50.836;5.356;2023-03-01T03:02:35;-1.50;99.90
40822;DHT22;26542;50.836;5.356;2023-03-01T03:05:22;-1.50;99.90
40822;DHT22;26542;50.836;5.356;2023-03-01T03:07:49;-1.60;99.90
40822;DHT22;26542;50.836;5.356;2023-03-01T03:10:22;-1.60;99.90
40822;DHT22;26542;50.836;5.356;2023-03-01T03:12:57;-1.70;99.90
40822;DHT22;26542;50.836;5.356;2023-03-01T03:15:23;-1.70;99.90
40822;DHT22;26542;50.836;5.356;2023-03-01T03:17:50;-1.50;99.90
40822;DHT22;26542;50.836;5.356;2023-03-01T03:20:18;-1.60;99.90
40822;DHT22;26542;50.836;5.356;2023-03-01T03:22:49;-1.30;99.90
40822;DHT22;26542;50.836;5.356;2023-03-01T03:25:16;-1.80;99.90
40822;DHT22;26542;50.836;5.356;2023-03-01T03:27:43;-1.80;99.90
40822;DHT22;26542;50.836;5.356;2023-03-01T03:30:12;-1.40;99.90
40822;DHT22;26542;50.836;5.356;2023-03-01T03:32:43;-1.80;99.90
40822;DHT22;26542;50.836;5.356;2023-03-01T03:35:23;-1.80;99.90
40822;DHT22;26542;50.836;5.356;2023-03-01T03:37:52;-1.40;99.90
40822;DHT22;26542;50.836;5.356;2023-03-01T03:40:38;-1.80;99.90
40822;DHT22;26542;50.836;5.356;2023-03-01T03:43:06;-1.80;99.90
40822;DHT22;26542;50.836;5.356;2023-03-01T03:45:32;-2.00;99.90
40822;DHT22;26542;50.836;5.356;2023-03-01T03:47:59;-2.00;99.90
40822;DHT22;26542;50.836;5.356;2023-03-01T03:50:26;-1.60;99.90
40822;DHT22;26542;50.836;5.356;2023-03-01T03:52:51;-1.60;99.90
40822;DHT22;26542;50.836;5.356;2023-03-01T03:55:18;-2.00;99.90
40822;DHT22;26542;50.836;5.356;2023-03-01T03:57:45;-2.10;99.90
40822;DHT22;26542;50.836;5.356;2023-03-01T04:00:21;-2.10;99.90
40822;DHT22;26542;50.836;5.356;2023-03-01T04:02:50;-2.10;99.90
40822;DHT22;26542;50.836;5.356;2023-03-01T04:05:18;-2.10;99.90
40822;DHT22;26542;50.836;5.356;2023-03-01T04:07:45;-2.20;99.90
40822;DHT22;26542;50.836;5.356;2023-03-01T04:10:17;-2.20;99.90
40822;DHT22;26542;50.836;5.356;2023-03-01T04:12:45;-1.90;99.90
40822;DHT22;26542;50.836;5.356;2023-03-01T04:15:11;-2.20;99.90
40822;DHT22;26542;50.836;5.356;2023-03-01T04:17:44;-1.50;99.90
40822;DHT22;26542;50.836;5.356;2023-03-01T04:20:17;-2.10;99.90
40822;DHT22;26542;50.836;5.356;2023-03-01T04:22:44;-2.20;99.90
40822;DHT22;26542;50.836;5.356;2023-03-01T04:25:13;-2.20;99.90
40822;DHT22;26542;50.836;5.356;2023-03-01T04:27:40;-2.30;99.90
40822;DHT22;26542;50.836;5.356;2023-03-01T04:30:09;-2.30;99.90
40822;DHT22;26542;50.836;5.356;2023-03-01T04:32:35;-2.30;99.90
40822;DHT22;26542;50.836;5.356;2023-03-01T04:35:03;-1.60;99.90
40822;DHT22;26542;50.836;5.356;2023-03-01T04:37:29;-2.00;99.90
40822;DHT22;26542;50.836;5.356;2023-03-01T04:39:57;-1.90;99.90
40822;DHT22;26542;50.836;5.356;2023-03-01T04:42:23;-2.30;99.90
40822;DHT22;26542;50.836;5.356;2023-03-01T04:44:49;-1.50;99.90
40822;DHT22;26542;50.836;5.356;2023-03-01T04:47:18;-2.40;99.90
40822;DHT22;26542;50.836;5.356;2023-03-01T04:49:44;-2.10;99.90
40822;DHT22;26542;50.836;5.356;2023-03-01T04:52:12;-1.90;99.90
40822;DHT22;26542;50.836;5.356;2023-03-01T04:54:38;-2.60;99.90
40822;DHT22;26542;50.836;5.356;2023-03-01T04:57:04;-2.70;99.90
40822;DHT22;26542;50.836;5.356;2023-03-01T04:59:32;-1.80;99.90
40822;DHT22;26542;50.836;5.356;2023-03-01T05:02:01;-2.00;99.90
40822;DHT22;26542;50.836;5.356;2023-03-01T05:04:27;-2.30;99.90
40822;DHT22;26542;50.836;5.356;2023-03-01T05:06:56;-2.60;99.90
40822;DHT22;26542;50.836;5.356;2023-03-01T05:09:26;-2.60;99.90
40822;DHT22;26542;50.836;5.356;2023-03-01T05:11:52;-2.70;99.90
40822;DHT22;26542;50.836;5.356;2023-03-01T05:14:17;-2.80;99.90
40822;DHT22;26542;50.836;5.356;2023-03-01T05:16:43;-2.20;99.90
40822;DHT22;26542;50.836;5.356;2023-03-01T05:19:09;-2.70;99.90
40822;DHT22;26542;50.836;5.356;2023-03-01T05:21:41;-2.50;99.90
40822;DHT22;26542;50.836;5.356;2023-03-01T05:24:28;-2.70;99.90
40822;DHT22;26542;50.836;5.356;2023-03-01T05:26:56;-2.20;99.90
40822;DHT22;26542;50.836;5.356;2023-03-01T05:29:23;-2.90;99.90
40822;DHT22;26542;50.836;5.356;2023-03-01T05:31:57;-2.70;99.90
40822;DHT22;26542;50.836;5.356;2023-03-01T05:34:32;-2.90;99.90
40822;DHT22;26542;50.836;5.356;2023-03-01T05:37:00;-2.90;99.90
40822;DHT22;26542;50.836;5.356;2023-03-01T05:39:29;-2.90;99.90
40822;DHT22;26542;50.836;5.356;2023-03-01T05:41:56;-2.80;99.90
40822;DHT22;26542;50.836;5.356;2023-03-01T05:44:23;-2.40;99.90
40822;DHT22;26542;50.836;5.356;2023-03-01T05:46:49;-2.60;99.90
40822;DHT22;26542;50.836;5.356;2023-03-01T05:49:15;-2.90;99.90
40822;DHT22;26542;50.836;5.356;2023-03-01T05:51:42;-2.60;99.90
40822;DHT22;26542;50.836;5.356;2023-03-01T05:54:09;-2.60;99.90
40822;DHT22;26542;50.836;5.356;2023-03-01T05:56:37;-3.00;99.90
40822;DHT22;26542;50.836;5.356;2023-03-01T05:59:04;-3.00;99.90
40822;DHT22;26542;50.836;5.356;2023-03-01T06:01:35;-3.00;99.90
40822;DHT22;26542;50.836;5.356;2023-03-01T06:04:19;-2.70;99.90
40822;DHT22;26542;50.836;5.356;2023-03-01T06:06:48;-3.10;99.90
40822;DHT22;26542;50.836;5.356;2023-03-01T06:09:14;-3.10;99.90
40822;DHT22;26542;50.836;5.356;2023-03-01T06:11:41;-2.80;99.90
40822;DHT22;26542;50.836;5.356;2023-03-01T06:14:07;-3.00;99.90
40822;DHT22;26542;50.836;5.356;2023-03-01T06:16:33;-3.20;99.90
40822;DHT22;26542;50.836;5.356;2023-03-01T06:19:01;-3.20;99.90
40822;DHT22;26542;50.836;5.356;2023-03-01T06:21:29;-3.20;99.90
40822;DHT22;26542;50.836;5.356;2023-03-01T06:23:55;-2.70;99.90
40822;DHT22;26542;50.836;5.356;2023-03-01T06:26:23;-3.30;99.90
40822;DHT22;26542;50.836;5.356;2023-03-01T06:28:55;-3.30;99.90
40822;DHT22;26542;50.836;5.356;2023-03-01T06:31:21;-3.10;99.90
40822;DHT22;26542;50.836;5.356;2023-03-01T06:33:48;-3.20;99.90
40822;DHT22;26542;50.836;5.356;2023-03-01T06:36:16;-3.10;99.90
40822;DHT22;26542;50.836;5.356;2023-03-01T06:38:46;-3.30;99.90
40822;DHT22;26542;50.836;5.356;2023-03-01T06:41:12;-3.20;99.90
40822;DHT22;26542;50.836;5.356;2023-03-01T06:43:40;-3.30;99.90
40822;DHT22;26542;50.836;5.356;2023-03-01T06:46:06;-3.30;99.90
40822;DHT22;26542;50.836;5.356;2023-03-01T06:48:34;-3.20;99.90
40822;DHT22;26542;50.836;5.356;2023-03-01T06:51:00;-3.20;99.90
40822;DHT22;26542;50.836;5.356;2023-03-01T06:53:27;-3.20;99.90
40822;DHT22;26542;50.836;5.356;2023-03-01T06:55:57;-2.40;99.90
40822;DHT22;26542;50.836;5.356;2023-03-01T06:58:26;-2.90;99.90
40822;DHT22;26542;50.836;5.356;2023-03-01T07:00:51;-3.20;99.90
40822;DHT22;26542;50.836;5.356;2023-03-01T07:03:19;-2.50;99.90
40822;DHT22;26542;50.836;5.356;2023-03-01T07:05:48;-2.80;99.90
40822;DHT22;26542;50.836;5.356;2023-03-01T07:08:14;-2.40;99.90
40822;DHT22;26542;50.836;5.356;2023-03-01T07:10:40;-3.10;99.90
40822;DHT22;26542;50.836;5.356;2023-03-01T07:13:05;-3.10;99.90
40822;DHT22;26542;50.836;5.356;2023-03-01T07:15:32;-2.80;99.90
40822;DHT22;26542;50.836;5.356;2023-03-01T07:18:02;-2.90;99.90
40822;DHT22;26542;50.836;5.356;2023-03-01T07:20:33;-2.80;99.90
40822;DHT22;26542;50.836;5.356;2023-03-01T07:23:01;-1.90;99.90
40822;DHT22;26542;50.836;5.356;2023-03-01T07:25:26;-2.80;99.90
40822;DHT22;26542;50.836;5.356;2023-03-01T07:27:53;-2.80;99.90
40822;DHT22;26542;50.836;5.356;2023-03-01T07:30:20;-2.30;99.90
40822;DHT22;26542;50.836;5.356;2023-03-01T07:32:48;-2.40;99.90
40822;DHT22;26542;50.836;5.356;2023-03-01T07:35:14;-2.60;99.90
40822;DHT22;26542;50.836;5.356;2023-03-01T07:37:40;-2.40;99.90
40822;DHT22;26542;50.836;5.356;2023-03-01T07:40:06;-2.50;99.90
40822;DHT22;26542;50.836;5.356;2023-03-01T07:42:32;-2.30;99.90
40822;DHT22;26542;50.836;5.356;2023-03-01T07:44:58;-2.20;99.90
40822;DHT22;26542;50.836;5.356;2023-03-01T07:47:24;-2.00;99.90
40822;DHT22;26542;50.836;5.356;2023-03-01T07:49:49;-2.00;99.90
40822;DHT22;26542;50.836;5.356;2023-03-01T07:52:15;-1.80;99.90
40822;DHT22;26542;50.836;5.356;2023-03-01T07:54:43;-1.70;99.90
40822;DHT22;26542;50.836;5.356;2023-03-01T07:57:09;-1.50;99.90
40822;DHT22;26542;50.836;5.356;2023-03-01T07:59:35;-1.30;99.90
40822;DHT22;26542;50.836;5.356;2023-03-01T08:02:03;-1.10;99.90
40822;DHT22;26542;50.836;5.356;2023-03-01T08:04:29;-1.00;99.90
40822;DHT22;26542;50.836;5.356;2023-03-01T08:06:56;0.00;99.90
40822;DHT22;26542;50.836;5.356;2023-03-01T08:09:25;-0.20;99.90
40822;DHT22;26542;50.836;5.356;2023-03-01T08:11:51;-0.10;99.90
40822;DHT22;26542;50.836;5.356;2023-03-01T08:14:19;-0.30;99.90
40822;DHT22;26542;50.836;5.356;2023-03-01T08:16:45;-0.10;99.90
40822;DHT22;26542;50.836;5.356;2023-03-01T08:19:13;0.40;99.90
40822;DHT22;26542;50.836;5.356;2023-03-01T08:21:39;0.20;99.90
40822;DHT22;26542;50.836;5.356;2023-03-01T08:24:08;0.40;99.90
40822;DHT22;26542;50.836;5.356;2023-03-01T08:26:35;0.40;99.90
40822;DHT22;26542;50.836;5.356;2023-03-01T08:29:04;0.50;99.90
40822;DHT22;26542;50.836;5.356;2023-03-01T08:31:35;0.60;99.90
40822;DHT22;26542;50.836;5.356;2023-03-01T08:34:04;0.70;99.90
40822;DHT22;26542;50.836;5.356;2023-03-01T08:36:33;0.80;99.90
40822;DHT22;26542;50.836;5.356;2023-03-01T08:39:00;0.90;99.90
40822;DHT22;26542;50.836;5.356;2023-03-01T08:41:26;0.90;99.90
40822;DHT22;26542;50.836;5.356;2023-03-01T08:43:55;1.20;99.90
40822;DHT22;26542;50.836;5.356;2023-03-01T08:46:25;1.30;99.90
40822;DHT22;26542;50.836;5.356;2023-03-01T08:48:51;1.40;99.90
40822;DHT22;26542;50.836;5.356;2023-03-01T08:51:18;1.60;99.90
40822;DHT22;26542;50.836;5.356;2023-03-01T08:53:47;1.60;99.90
40822;DHT22;26542;50.836;5.356;2023-03-01T08:56:17;1.70;99.90
40822;DHT22;26542;50.836;5.356;2023-03-01T08:58:45;1.80;99.90
40822;DHT22;26542;50.836;5.356;2023-03-01T09:01:13;2.00;99.90
40822;DHT22;26542;50.836;5.356;2023-03-01T09:03:41;2.00;99.90
40822;DHT22;26542;50.836;5.356;2023-03-01T09:06:08;2.10;99.90
40822;DHT22;26542;50.836;5.356;2023-03-01T09:08:38;2.10;99.90
40822;DHT22;26542;50.836;5.356;2023-03-01T09:11:09;2.20;99.90
40822;DHT22;26542;50.836;5.356;2023-03-01T09:13:35;2.40;99.90
40822;DHT22;26542;50.836;5.356;2023-03-01T09:16:11;2.50;99.90
40822;DHT22;26542;50.836;5.356;2023-03-01T09:18:37;2.70;99.90
40822;DHT22;26542;50.836;5.356;2023-03-01T09:21:13;2.90;99.90
40822;DHT22;26542;50.836;5.356;2023-03-01T09:23:45;3.00;99.90
40822;DHT22;26542;50.836;5.356;2023-03-01T09:26:16;3.20;99.90
40822;DHT22;26542;50.836;5.356;2023-03-01T09:28:42;3.20;99.90
40822;DHT22;26542;50.836;5.356;2023-03-01T09:31:10;3.40;99.90
40822;DHT22;26542;50.836;5.356;2023-03-01T09:33:38;3.50;99.90
40822;DHT22;26542;50.836;5.356;2023-03-01T09:36:11;3.50;99.90
40822;DHT22;26542;50.836;5.356;2023-03-01T09:38:36;3.60;99.90
40822;DHT22;26542;50.836;5.356;2023-03-01T09:41:08;3.80;99.90
40822;DHT22;26542;50.836;5.356;2023-03-01T09:46:13;4.10;99.90
40822;DHT22;26542;50.836;5.356;2023-03-01T09:51:34;4.10;99.90
40822;DHT22;26542;50.836;5.356;2023-03-01T09:54:04;4.10;99.90
40822;DHT22;26542;50.836;5.356;2023-03-01T09:56:41;4.30;99.90
40822;DHT22;26542;50.836;5.356;2023-03-01T10:02:27;4.50;99.20
40822;DHT22;26542;50.836;5.356;2023-03-01T10:11:22;4.70;99.20
40822;DHT22;26542;50.836;5.356;2023-03-01T10:19:02;4.90;96.90
40822;DHT22;26542;50.836;5.356;2023-03-01T10:21:29;4.90;97.20
40822;DHT22;26542;50.836;5.356;2023-03-01T10:24:10;5.00;98.00
40822;DHT22;26542;50.836;5.356;2023-03-01T10:26:55;5.10;97.80
40822;DHT22;26542;50.836;5.356;2023-03-01T10:29:36;5.10;96.30
40822;DHT22;26542;50.836;5.356;2023-03-01T10:32:03;5.20;96.90
40822;DHT22;26542;50.836;5.356;2023-03-01T10:34:33;5.40;96.90
40822;DHT22;26542;50.836;5.356;2023-03-01T10:39:35;5.50;96.00
40822;DHT22;26542;50.836;5.356;2023-03-01T10:42:04;5.50;95.80
40822;DHT22;26542;50.836;5.356;2023-03-01T10:44:58;5.70;95.90
40822;DHT22;26542;50.836;5.356;2023-03-01T10:47:27;5.80;95.70
40822;DHT22;26542;50.836;5.356;2023-03-01T10:52:27;5.90;95.50
40822;DHT22;26542;50.836;5.356;2023-03-01T10:54:54;6.00;95.30
40822;DHT22;26542;50.836;5.356;2023-03-01T10:57:35;6.20;95.10
40822;DHT22;26542;50.836;5.356;2023-03-01T11:00:20;6.20;94.80
40822;DHT22;26542;50.836;5.356;2023-03-01T11:03:09;6.30;94.50
40822;DHT22;26542;50.836;5.356;2023-03-01T11:05:36;6.40;93.30
40822;DHT22;26542;50.836;5.356;2023-03-01T11:08:05;6.40;93.80
40822;DHT22;26542;50.836;5.356;2023-03-01T11:10:36;6.40;94.50
40822;DHT22;26542;50.836;5.356;2023-03-01T11:13:19;6.40;93.90
40822;DHT22;26542;50.836;5.356;2023-03-01T11:16:06;6.60;94.00
40822;DHT22;26542;50.836;5.356;2023-03-01T11:18:33;6.70;93.70
40822;DHT22;26542;50.836;5.356;2023-03-01T11:20:59;6.70;93.30
40822;DHT22;26542;50.836;5.356;2023-03-01T11:23:30;6.80;93.20
40822;DHT22;26542;50.836;5.356;2023-03-01T11:26:01;6.90;92.10
40822;DHT22;26542;50.836;5.356;2023-03-01T11:28:31;6.80;91.10
40822;DHT22;26542;50.836;5.356;2023-03-01T11:31:09;6.90;92.60
40822;DHT22;26542;50.836;5.356;2023-03-01T11:38:43;7.10;92.00
40822;DHT22;26542;50.836;5.356;2023-03-01T11:41:27;7.30;92.50
40822;DHT22;26542;50.836;5.356;2023-03-01T11:44:04;7.40;92.80
40822;DHT22;26542;50.836;5.356;2023-03-01T11:46:45;7.60;92.10
40822;DHT22;26542;50.836;5.356;2023-03-01T11:49:40;7.70;91.70
40822;DHT22;26542;50.836;5.356;2023-03-01T12:03:06;8.10;90.60
40822;DHT22;26542;50.836;5.356;2023-03-01T12:08:46;8.20;90.30
40822;DHT22;26542;50.836;5.356;2023-03-01T12:11:33;8.40;90.10
40822;DHT22;26542;50.836;5.356;2023-03-01T12:17:42;8.50;88.20
40822;DHT22;26542;50.836;5.356;2023-03-01T12:25:41;8.50;87.70
40822;DHT22;26542;50.836;5.356;2023-03-01T12:38:49;8.50;87.70
40822;DHT22;26542;50.836;5.356;2023-03-01T12:41:21;8.60;86.20
40822;DHT22;26542;50.836;5.356;2023-03-01T12:54:38;8.60;88.00
40822;DHT22;26542;50.836;5.356;2023-03-01T13:02:58;8.90;86.10
40822;DHT22;26542;50.836;5.356;2023-03-01T13:08:38;8.90;85.40
40822;DHT22;26542;50.836;5.356;2023-03-01T13:11:06;8.90;82.90
40822;DHT22;26542;50.836;5.356;2023-03-01T13:13:37;9.10;84.70
40822;DHT22;26542;50.836;5.356;2023-03-01T13:16:39;9.10;84.10
40822;DHT22;26542;50.836;5.356;2023-03-01T13:21:34;9.30;82.80
40822;DHT22;26542;50.836;5.356;2023-03-01T13:23:59;9.40;83.10
40822;DHT22;26542;50.836;5.356;2023-03-01T13:26:25;9.40;84.00
40822;DHT22;26542;50.836;5.356;2023-03-01T13:28:53;9.40;81.00
40822;DHT22;26542;50.836;5.356;2023-03-01T13:34:00;9.30;81.60
40822;DHT22;26542;50.836;5.356;2023-03-01T13:44:32;9.30;81.50
40822;DHT22;26542;50.836;5.356;2023-03-01T13:49:41;9.50;81.40
40822;DHT22;26542;50.836;5.356;2023-03-01T13:52:35;9.50;80.40
40822;DHT22;26542;50.836;5.356;2023-03-01T13:57:41;9.60;80.00
40822;DHT22;26542;50.836;5.356;2023-03-01T14:00:31;9.60;80.00
40822;DHT22;26542;50.836;5.356;2023-03-01T14:03:14;9.70;80.70
40822;DHT22;26542;50.836;5.356;2023-03-01T14:05:42;9.70;81.40
40822;DHT22;26542;50.836;5.356;2023-03-01T14:08:23;9.90;81.90
40822;DHT22;26542;50.836;5.356;2023-03-01T14:19:24;9.80;79.40
40822;DHT22;26542;50.836;5.356;2023-03-01T14:24:58;9.80;79.80
40822;DHT22;26542;50.836;5.356;2023-03-01T14:27:35;10.00;78.40
40822;DHT22;26542;50.836;5.356;2023-03-01T14:30:09;10.00;78.00
40822;DHT22;26542;50.836;5.356;2023-03-01T14:32:40;9.90;77.60
40822;DHT22;26542;50.836;5.356;2023-03-01T14:35:27;9.90;78.00
40822;DHT22;26542;50.836;5.356;2023-03-01T14:37:53;10.00;77.10
40822;DHT22;26542;50.836;5.356;2023-03-01T14:40:28;10.00;77.60
40822;DHT22;26542;50.836;5.356;2023-03-01T14:42:56;10.00;76.60
40822;DHT22;26542;50.836;5.356;2023-03-01T14:45:25;9.90;77.10
40822;DHT22;26542;50.836;5.356;2023-03-01T14:47:55;9.90;78.20
40822;DHT22;26542;50.836;5.356;2023-03-01T14:50:32;9.70;77.00
40822;DHT22;26542;50.836;5.356;2023-03-01T14:53:04;9.70;78.80
40822;DHT22;26542;50.836;5.356;2023-03-01T14:55:41;9.60;78.80
40822;DHT22;26542;50.836;5.356;2023-03-01T14:58:15;9.50;78.10
40822;DHT22;26542;50.836;5.356;2023-03-01T15:00:58;9.60;80.10
40822;DHT22;26542;50.836;5.356;2023-03-01T15:03:45;9.70;78.80
40822;DHT22;26542;50.836;5.356;2023-03-01T15:06:15;9.60;78.30
40822;DHT22;26542;50.836;5.356;2023-03-01T15:08:47;9.70;78.50
40822;DHT22;26542;50.836;5.356;2023-03-01T15:13:40;9.80;77.80
40822;DHT22;26542;50.836;5.356;2023-03-01T15:16:33;9.50;77.50
40822;DHT22;26542;50.836;5.356;2023-03-01T15:19:05;9.30;78.80
40822;DHT22;26542;50.836;5.356;2023-03-01T15:21:32;9.30;78.80
40822;DHT22;26542;50.836;5.356;2023-03-01T15:24:19;9.30;79.40
40822;DHT22;26542;50.836;5.356;2023-03-01T15:29:27;9.10;77.90
40822;DHT22;26542;50.836;5.356;2023-03-01T15:34:26;9.20;79.70
40822;DHT22;26542;50.836;5.356;2023-03-01T15:36:54;9.30;80.30
40822;DHT22;26542;50.836;5.356;2023-03-01T15:39:36;9.40;78.90
40822;DHT22;26542;50.836;5.356;2023-03-01T15:44:35;9.40;79.00
40822;DHT22;26542;50.836;5.356;2023-03-01T15:47:22;9.40;78.10
40822;DHT22;26542;50.836;5.356;2023-03-01T15:49:52;9.30;79.20
40822;DHT22;26542;50.836;5.356;2023-03-01T15:52:32;9.30;78.40
40822;DHT22;26542;50.836;5.356;2023-03-01T15:55:04;9.20;78.50
40822;DHT22;26542;50.836;5.356;2023-03-01T15:57:33;9.30;78.00
40822;DHT22;26542;50.836;5.356;2023-03-01T16:00:00;9.30;79.50
40822;DHT22;26542;50.836;5.356;2023-03-01T16:02:26;9.30;79.80
40822;DHT22;26542;50.836;5.356;2023-03-01T16:04:55;9.20;79.00
40822;DHT22;26542;50.836;5.356;2023-03-01T16:07:21;9.30;79.50
40822;DHT22;26542;50.836;5.356;2023-03-01T16:09:47;9.20;80.20
40822;DHT22;26542;50.836;5.356;2023-03-01T16:12:15;9.20;80.00
40822;DHT22;26542;50.836;5.356;2023-03-01T16:14:41;9.10;79.60
40822;DHT22;26542;50.836;5.356;2023-03-01T16:17:09;9.10;79.60
40822;DHT22;26542;50.836;5.356;2023-03-01T16:19:36;9.00;79.50
40822;DHT22;26542;50.836;5.356;2023-03-01T16:22:06;9.00;80.00
40822;DHT22;26542;50.836;5.356;2023-03-01T16:24:32;9.00;79.60
40822;DHT22;26542;50.836;5.356;2023-03-01T16:27:01;8.90;80.00
40822;DHT22;26542;50.836;5.356;2023-03-01T16:29:27;8.90;80.50
40822;DHT22;26542;50.836;5.356;2023-03-01T16:31:54;9.00;79.60
40822;DHT22;26542;50.836;5.356;2023-03-01T16:34:20;8.80;80.00
40822;DHT22;26542;50.836;5.356;2023-03-01T16:36:47;8.80;80.30
40822;DHT22;26542;50.836;5.356;2023-03-01T16:39:15;8.70;80.50
40822;DHT22;26542;50.836;5.356;2023-03-01T16:41:41;8.60;80.90
40822;DHT22;26542;50.836;5.356;2023-03-01T16:44:09;8.60;80.90
40822;DHT22;26542;50.836;5.356;2023-03-01T16:46:35;8.50;80.30
40822;DHT22;26542;50.836;5.356;2023-03-01T16:49:01;8.50;81.30
40822;DHT22;26542;50.836;5.356;2023-03-01T16:51:29;8.50;81.40
40822;DHT22;26542;50.836;5.356;2023-03-01T16:53:55;8.20;82.00
40822;DHT22;26542;50.836;5.356;2023-03-01T16:56:21;8.20;81.40
40822;DHT22;26542;50.836;5.356;2023-03-01T16:58:47;8.20;82.00
40822;DHT22;26542;50.836;5.356;2023-03-01T17:01:20;8.00;82.60
40822;DHT22;26542;50.836;5.356;2023-03-01T17:03:49;8.00;82.70
40822;DHT22;26542;50.836;5.356;2023-03-01T17:06:20;7.90;82.70
40822;DHT22;26542;50.836;5.356;2023-03-01T17:08:46;7.80;82.90
40822;DHT22;26542;50.836;5.356;2023-03-01T17:11:15;7.70;82.90
40822;DHT22;26542;50.836;5.356;2023-03-01T17:13:41;7.70;83.10
40822;DHT22;26542;50.836;5.356;2023-03-01T17:16:09;7.60;83.70
40822;DHT22;26542;50.836;5.356;2023-03-01T17:18:35;7.50;84.10
40822;DHT22;26542;50.836;5.356;2023-03-01T17:21:01;7.50;83.90
40822;DHT22;26542;50.836;5.356;2023-03-01T17:23:31;7.50;83.90
40822;DHT22;26542;50.836;5.356;2023-03-01T17:25:57;7.50;84.10
40822;DHT22;26542;50.836;5.356;2023-03-01T17:28:25;7.50;84.70
40822;DHT22;26542;50.836;5.356;2023-03-01T17:30:53;7.40;84.60
40822;DHT22;26542;50.836;5.356;2023-03-01T17:33:20;7.30;84.80
40822;DHT22;26542;50.836;5.356;2023-03-01T17:35:46;7.30;85.00
40822;DHT22;26542;50.836;5.356;2023-03-01T17:38:17;7.20;85.30
40822;DHT22;26542;50.836;5.356;2023-03-01T17:40:43;7.10;85.80
40822;DHT22;26542;50.836;5.356;2023-03-01T17:43:12;7.10;85.00
40822;DHT22;26542;50.836;5.356;2023-03-01T17:45:39;7.10;85.50
40822;DHT22;26542;50.836;5.356;2023-03-01T17:48:08;6.90;86.20
40822;DHT22;26542;50.836;5.356;2023-03-01T17:50:39;6.80;86.60
40822;DHT22;26542;50.836;5.356;2023-03-01T17:53:08;6.80;86.40
40822;DHT22;26542;50.836;5.356;2023-03-01T17:55:42;6.70;87.20
40822;DHT22;26542;50.836;5.356;2023-03-01T17:58:11;6.60;87.50
40822;DHT22;26542;50.836;5.356;2023-03-01T18:00:39;6.50;87.80
40822;DHT22;26542;50.836;5.356;2023-03-01T18:03:05;6.40;87.80
40822;DHT22;26542;50.836;5.356;2023-03-01T18:05:33;6.40;88.20